Time;durP1;ratioP1;P1;durP2;ratioP2;P2;SDS_P1;SDS_P2;PMS_P1;PMS_P2;Temp;Humidity;BMP_temperature;BMP_pressure;BME280_temperature;BME280_humidity;BME280_pressure;Samples;Min_cycle;Max_cycle;Signal;HPM_P1;HPM_P2
2021/08/28 00:00:17;;;;;;;0.30;0.30;;;14.60;99.90;;;;;;4385607;32;20447;-73
2021/08/28 00:02:42;;;;;;;0.62;0.57;;;14.60;99.90;;;;;;4396682;32;20121;-73
2021/08/28 00:05:08;;;;;;;0.40;0.40;;;14.60;99.90;;;;;;4401766;32;20050;-73
2021/08/28 00:07:34;;;;;;;0.35;0.35;;;14.50;99.90;;;;;;4391821;32;20063;-73
2021/08/28 00:09:59;;;;;;;0.68;0.68;;;14.60;99.90;;;;;;4385381;32;20066;-73
2021/08/28 00:12:25;;;;;;;0.40;0.40;;;14.50;99.90;;;;;;4385443;32;20405;-72
2021/08/28 00:14:50;;;;;;;0.37;0.37;;;14.50;99.90;;;;;;4397511;32;20066;-72
2021/08/28 00:17:16;;;;;;;0.22;0.22;;;14.50;99.90;;;;;;4400604;32;20066;-73
2021/08/28 00:19:44;;;;;;;0.30;0.30;;;14.50;99.90;;;;;;4401948;32;20074;-72
2021/08/28 00:22:09;;;;;;;1.30;0.85;;;14.60;99.90;;;;;;4399036;32;20118;-72
2021/08/28 00:24:35;;;;;;;0.30;0.30;;;14.50;99.90;;;;;;4385452;32;20122;-72
2021/08/28 00:27:00;;;;;;;1.95;1.10;;;14.40;99.90;;;;;;4385514;32;20214;-72
2021/08/28 00:29:26;;;;;;;0.30;0.30;;;14.40;99.90;;;;;;4397405;32;20074;-72
2021/08/28 00:31:51;;;;;;;0.30;0.30;;;14.40;99.90;;;;;;4393196;32;20117;-72
2021/08/28 00:34:16;;;;;;;0.37;0.37;;;14.50;99.90;;;;;;4393939;32;20082;-72
2021/08/28 00:36:42;;;;;;;0.50;0.50;;;14.50;99.90;;;;;;4391555;32;20058;-73
2021/08/28 00:39:07;;;;;;;0.37;0.37;;;14.50;99.90;;;;;;4396299;32;20067;-72
2021/08/28 00:41:33;;;;;;;0.37;0.37;;;14.40;99.90;;;;;;4390532;32;20105;-72
2021/08/28 00:43:58;;;;;;;1.92;0.98;;;14.40;99.90;;;;;;4389411;32;20566;-72
2021/08/28 00:46:24;;;;;;;0.30;0.30;;;14.50;99.90;;;;;;4398927;32;20069;-72
2021/08/28 00:48:49;;;;;;;0.35;0.35;;;14.50;99.90;;;;;;4399563;32;20074;-73
2021/08/28 00:51:15;;;;;;;0.30;0.30;;;14.50;99.90;;;;;;4388875;32;20069;-72
2021/08/28 00:53:41;;;;;;;0.43;0.43;;;14.50;99.90;;;;;;4385385;32;20114;-72
2021/08/28 00:56:07;;;;;;;0.37;0.37;;;14.50;99.90;;;;;;4390201;32;20087;-72
2021/08/28 00:58:32;;;;;;;0.30;0.30;;;14.50;99.90;;;;;;4384037;32;20067;-72
2021/08/28 01:01:12;;;;;;;0.70;0.40;;;14.50;99.90;;;;;;4385752;32;20070;-73
2021/08/28 01:03:42;;;;;;;0.40;0.40;;;14.50;99.90;;;;;;4400212;32;20117;-72
2021/08/28 01:06:14;;;;;;;0.73;0.60;;;14.50;99.90;;;;;;4399694;32;20061;-72
2021/08/28 01:08:44;;;;;;;0.52;0.52;;;14.50;99.90;;;;;;4385698;32;20117;-72
2021/08/28 01:11:35;;;;;;;0.93;0.25;;;14.50;99.90;;;;;;4385321;32;20137;-73
2021/08/28 01:14:09;;;;;;;0.52;0.40;;;14.40;99.90;;;;;;4381109;32;20491;-73
2021/08/28 01:16:36;;;;;;;0.30;0.30;;;14.50;99.90;;;;;;4400163;32;20082;-73
2021/08/28 01:19:02;;;;;;;0.30;0.30;;;14.40;99.90;;;;;;4400041;32;20094;-73
2021/08/28 01:21:31;;;;;;;0.30;0.30;;;14.50;99.90;;;;;;4400463;32;20054;-73
2021/08/28 01:24:00;;;;;;;0.47;0.47;;;14.60;99.90;;;;;;4386752;32;20054;-74
2021/08/28 01:26:34;;;;;;;0.22;0.22;;;14.60;99.90;;;;;;4384959;32;20059;-72
2021/08/28 01:29:15;;;;;;;0.40;0.40;;;14.60;99.90;;;;;;4397216;32;20058;-73
2021/08/28 01:31:42;;;;;;;1.17;1.08;;;14.60;99.90;;;;;;4384461;32;20416;-73
2021/08/28 01:34:07;;;;;;;0.47;0.47;;;14.60;99.90;;;;;;4393197;32;20401;-74
2021/08/28 01:36:34;;;;;;;7.37;0.37;;;14.50;99.90;;;;;;4392022;32;20074;-73
2021/08/28 01:39:01;;;;;;;0.40;0.40;;;14.50;99.90;;;;;;4395057;32;20396;-73
2021/08/28 01:41:27;;;;;;;0.50;0.50;;;14.60;99.90;;;;;;4390535;32;20566;-73
2021/08/28 01:43:53;;;;;;;0.30;0.30;;;14.60;99.90;;;;;;4391837;32;20061;-73
2021/08/28 01:46:19;;;;;;;0.37;0.37;;;14.50;99.90;;;;;;4387475;32;20067;-74
2021/08/28 01:48:46;;;;;;;0.30;0.30;;;14.60;99.90;;;;;;4385261;32;20066;-73
2021/08/28 01:51:12;;;;;;;0.98;0.43;;;14.60;99.90;;;;;;4395898;32;20090;-73
2021/08/28 01:53:38;;;;;;;0.30;0.30;;;14.60;99.90;;;;;;4398789;32;20109;-73
2021/08/28 01:56:05;;;;;;;0.50;0.50;;;14.50;99.90;;;;;;4394322;32;20085;-73
2021/08/28 01:58:30;;;;;;;1.08;0.62;;;14.50;99.90;;;;;;4400082;32;20523;-73
2021/08/28 02:00:56;;;;;;;6.22;0.88;;;14.50;99.90;;;;;;4400724;32;20078;-73
2021/08/28 02:03:22;;;;;;;0.35;0.35;;;14.50;99.90;;;;;;4369111;32;20114;-73
2021/08/28 02:05:53;;;;;;;0.30;0.30;;;14.60;99.90;;;;;;4369299;32;20071;-73
2021/08/28 02:08:26;;;;;;;0.98;0.62;;;14.60;99.90;;;;;;4396445;32;20969;-73
2021/08/28 02:10:58;;;;;;;0.40;0.40;;;14.60;99.90;;;;;;4399730;32;20447;-72
2021/08/28 02:13:30;;;;;;;0.30;0.30;;;14.50;99.90;;;;;;4397252;32;20166;-73
2021/08/28 02:16:05;;;;;;;1.27;0.52;;;14.50;99.90;;;;;;4385008;32;20543;-73
2021/08/28 02:18:43;;;;;;;0.30;0.30;;;14.50;99.90;;;;;;4384887;32;20483;-73
2021/08/28 02:21:10;;;;;;;0.40;0.40;;;14.50;99.90;;;;;;4385009;32;20075;-73
2021/08/28 02:23:43;;;;;;;0.40;0.40;;;14.50;99.90;;;;;;4395728;32;20086;-73
2021/08/28 02:26:11;;;;;;;0.47;0.32;;;14.50;99.90;;;;;;4400282;32;20079;-74
2021/08/28 02:28:43;;;;;;;0.20;0.20;;;14.50;99.90;;;;;;4389436;32;20117;-73
2021/08/28 02:31:10;;;;;;;0.62;0.30;;;14.50;99.90;;;;;;4392261;32;20066;-73
2021/08/28 02:33:36;;;;;;;0.30;0.30;;;14.50;99.90;;;;;;4391243;32;20567;-73
2021/08/28 02:36:03;;;;;;;0.40;0.40;;;14.50;99.90;;;;;;4392468;32;20070;-73
2021/08/28 02:38:30;;;;;;;0.30;0.30;;;14.50;99.90;;;;;;4391244;32;20058;-73
2021/08/28 02:40:59;;;;;;;0.35;0.35;;;14.50;99.90;;;;;;4381565;32;20600;-73
2021/08/28 02:43:26;;;;;;;0.40;0.40;;;14.40;99.90;;;;;;4394577;32;20066;-73
2021/08/28 02:45:52;;;;;;;0.40;0.40;;;14.50;99.90;;;;;;4388817;32;20125;-73
2021/08/28 02:48:20;;;;;;;0.40;0.40;;;14.50;99.90;;;;;;4385905;32;20066;-73
2021/08/28 02:50:48;;;;;;;0.30;0.30;;;14.50;99.90;;;;;;4395106;32;20087;-74
2021/08/28 02:53:16;;;;;;;0.47;0.47;;;14.50;99.90;;;;;;4396525;32;20661;-73
2021/08/28 02:55:45;;;;;;;0.40;0.40;;;14.50;99.90;;;;;;4393995;32;20129;-73
2021/08/28 02:58:11;;;;;;;0.30;0.30;;;14.50;99.90;;;;;;4399129;32;20055;-72
2021/08/28 03:00:37;;;;;;;0.20;0.20;;;14.50;99.90;;;;;;4399136;32;20066;-73
2021/08/28 03:03:03;;;;;;;0.40;0.40;;;14.50;99.90;;;;;;4387134;32;20075;-73
2021/08/28 03:05:29;;;;;;;0.30;0.30;;;14.40;99.90;;;;;;4386139;32;20511;-72
2021/08/28 03:07:55;;;;;;;0.20;0.20;;;14.40;99.90;;;;;;4397458;32;20116;-73
2021/08/28 03:10:21;;;;;;;0.28;0.28;;;14.40;99.90;;;;;;4401256;32;20495;-72
2021/08/28 03:12:46;;;;;;;0.40;0.40;;;14.40;99.90;;;;;;4401341;32;20125;-73
2021/08/28 03:15:12;;;;;;;0.40;0.40;;;14.40;99.90;;;;;;4386391;32;20074;-73
2021/08/28 03:17:39;;;;;;;0.40;0.40;;;14.40;99.90;;;;;;4386717;32;20452;-73
2021/08/28 03:20:08;;;;;;;0.50;0.50;;;14.30;99.90;;;;;;4386419;32;20496;-73
2021/08/28 03:22:36;;;;;;;0.30;0.30;;;14.30;99.90;;;;;;4390732;32;20075;-73
2021/08/28 03:25:02;;;;;;;0.40;0.40;;;14.30;99.90;;;;;;4401498;32;20128;-73
2021/08/28 03:27:28;;;;;;;0.40;0.40;;;14.30;99.90;;;;;;4396950;32;20494;-73
2021/08/28 03:29:54;;;;;;;0.22;0.22;;;14.30;99.90;;;;;;4395633;32;20070;-73
2021/08/28 03:32:20;;;;;;;0.20;0.20;;;14.30;99.90;;;;;;4395385;32;20078;-73
2021/08/28 03:34:46;;;;;;;2.05;0.82;;;14.30;99.90;;;;;;4388510;32;20514;-72
2021/08/28 03:37:13;;;;;;;0.57;0.47;;;14.30;99.90;;;;;;4394787;32;20413;-72
2021/08/28 03:39:39;;;;;;;0.40;0.40;;;14.30;99.90;;;;;;4398227;32;20121;-72
2021/08/28 03:42:07;;;;;;;0.50;0.32;;;14.30;99.90;;;;;;4391493;32;20502;-73
2021/08/28 03:44:37;;;;;;;0.37;0.37;;;14.20;99.90;;;;;;4388644;32;20062;-73
2021/08/28 03:47:03;;;;;;;0.40;0.40;;;14.20;99.90;;;;;;4399704;32;20066;-73
2021/08/28 03:49:28;;;;;;;6.12;0.45;;;14.30;99.90;;;;;;4397403;32;20167;-73
2021/08/28 03:51:54;;;;;;;0.40;0.40;;;14.30;99.90;;;;;;4392147;32;20078;-72
2021/08/28 03:54:19;;;;;;;0.30;0.30;;;14.20;99.90;;;;;;4401402;32;20077;-72
2021/08/28 03:56:45;;;;;;;0.40;0.40;;;14.30;99.90;;;;;;4386377;32;20434;-72
2021/08/28 03:59:10;;;;;;;0.35;0.35;;;14.30;99.90;;;;;;4385425;32;20070;-73
2021/08/28 04:01:36;;;;;;;0.80;0.40;;;14.30;99.90;;;;;;4389576;32;20074;-73
2021/08/28 04:04:01;;;;;;;0.30;0.30;;;14.30;99.90;;;;;;4389777;32;20061;-73
2021/08/28 04:06:27;;;;;;;0.22;0.22;;;14.20;99.90;;;;;;4384896;32;20510;-73
2021/08/28 04:08:52;;;;;;;1.75;0.95;;;14.30;99.90;;;;;;4385780;32;20079;-72
2021/08/28 04:11:18;;;;;;;0.40;0.40;;;14.30;99.90;;;;;;4385327;32;20070;-73
2021/08/28 04:13:43;;;;;;;0.32;0.32;;;14.30;99.90;;;;;;4386774;32;20058;-73
2021/08/28 04:16:09;;;;;;;1.08;0.75;;;14.40;99.90;;;;;;4384756;32;20059;-73
2021/08/28 04:18:34;;;;;;;0.80;0.50;;;14.30;99.90;;;;;;4385910;32;20395;-73
2021/08/28 04:20:59;;;;;;;0.40;0.40;;;14.30;99.90;;;;;;4385367;32;20063;-72
2021/08/28 04:23:25;;;;;;;0.47;0.47;;;14.30;99.90;;;;;;4394774;32;20404;-72
2021/08/28 04:25:50;;;;;;;0.70;0.50;;;14.20;99.90;;;;;;4385385;32;20128;-72
2021/08/28 04:28:16;;;;;;;0.80;0.80;;;14.20;99.90;;;;;;4392872;32;20061;-73
2021/08/28 04:30:41;;;;;;;0.28;0.28;;;14.30;99.90;;;;;;4394634;32;20117;-74
2021/08/28 04:33:07;;;;;;;0.30;0.30;;;14.20;99.90;;;;;;4396024;32;20061;-73
2021/08/28 04:35:33;;;;;;;0.30;0.30;;;14.20;99.90;;;;;;4391316;32;20073;-72
2021/08/28 04:37:59;;;;;;;0.30;0.30;;;14.20;99.90;;;;;;4386046;32;20070;-73
2021/08/28 04:40:25;;;;;;;0.30;0.30;;;14.20;99.90;;;;;;4390637;32;20071;-73
2021/08/28 04:42:52;;;;;;;0.40;0.40;;;14.20;99.90;;;;;;4396724;32;20121;-73
2021/08/28 04:45:18;;;;;;;0.20;0.20;;;14.10;99.90;;;;;;4393138;32;20063;-73
2021/08/28 04:47:43;;;;;;;0.45;0.45;;;14.20;99.90;;;;;;4384699;32;20414;-73
2021/08/28 04:50:09;;;;;;;0.30;0.30;;;14.20;99.90;;;;;;4392781;32;20793;-73
2021/08/28 04:52:35;;;;;;;0.20;0.20;;;14.20;99.90;;;;;;4392103;32;20058;-72
2021/08/28 04:55:00;;;;;;;0.30;0.30;;;14.20;99.90;;;;;;4384679;32;20082;-73
2021/08/28 04:57:26;;;;;;;0.37;0.37;;;14.10;99.90;;;;;;4396026;32;20500;-73
2021/08/28 04:59:51;;;;;;;0.30;0.30;;;14.20;99.90;;;;;;4385838;32;20063;-73
2021/08/28 05:02:17;;;;;;;0.62;0.50;;;14.30;99.90;;;;;;4384497;32;20066;-73
2021/08/28 05:04:42;;;;;;;0.40;0.40;;;14.30;99.90;;;;;;4385383;32;20449;-73
2021/08/28 05:07:08;;;;;;;2.62;1.70;;;14.30;99.90;;;;;;4391110;32;20099;-73
2021/08/28 05:09:33;;;;;;;5.50;1.60;;;14.20;99.90;;;;;;4387128;32;20148;-73
2021/08/28 05:11:58;;;;;;;0.55;0.30;;;14.40;99.90;;;;;;4384535;32;20078;-72
2021/08/28 05:14:25;;;;;;;0.40;0.40;;;14.40;99.90;;;;;;4385906;32;20066;-73
2021/08/28 05:16:50;;;;;;;0.32;0.30;;;14.40;99.90;;;;;;4384644;32;20090;-73
2021/08/28 05:19:16;;;;;;;0.52;0.50;;;14.40;99.90;;;;;;4384008;32;20067;-73
2021/08/28 05:21:42;;;;;;;0.65;0.32;;;14.50;99.90;;;;;;4384751;32;20066;-73
2021/08/28 05:24:08;;;;;;;0.30;0.30;;;14.40;99.90;;;;;;4398707;32;20171;-72
2021/08/28 05:26:33;;;;;;;0.28;0.28;;;14.50;99.90;;;;;;4399575;32;20071;-73
2021/08/28 05:28:59;;;;;;;0.40;0.40;;;14.50;99.90;;;;;;4387754;32;20088;-73
2021/08/28 05:31:24;;;;;;;0.62;0.50;;;14.30;99.90;;;;;;4392861;32;20057;-73
2021/08/28 05:33:50;;;;;;;0.62;0.40;;;14.30;99.90;;;;;;4391918;32;20395;-73
2021/08/28 05:36:15;;;;;;;0.47;0.47;;;14.40;99.90;;;;;;4390442;32;20062;-73
2021/08/28 05:38:41;;;;;;;1.00;0.55;;;14.40;99.90;;;;;;4393915;32;20097;-73
2021/08/28 05:41:06;;;;;;;0.75;0.75;;;14.30;99.90;;;;;;4392228;32;20058;-73
2021/08/28 05:43:32;;;;;;;0.57;0.50;;;14.30;99.90;;;;;;4388637;32;20070;-73
2021/08/28 05:45:57;;;;;;;0.60;0.60;;;14.30;99.90;;;;;;4395497;32;20087;-73
2021/08/28 05:48:23;;;;;;;1.25;0.60;;;14.30;99.90;;;;;;4398038;32;20515;-72
2021/08/28 05:50:49;;;;;;;0.47;0.47;;;14.30;99.90;;;;;;4387444;32;20066;-73
2021/08/28 05:53:15;;;;;;;0.40;0.40;;;14.20;99.90;;;;;;4387082;32;20110;-73
2021/08/28 05:55:40;;;;;;;0.40;0.40;;;14.20;99.90;;;;;;4388910;32;20071;-72
2021/08/28 05:58:05;;;;;;;0.82;0.70;;;14.20;99.90;;;;;;4384401;32;20071;-73
2021/08/28 06:00:31;;;;;;;0.98;0.60;;;14.40;99.90;;;;;;4384303;32;20118;-73
2021/08/28 06:02:56;;;;;;;1.42;0.75;;;14.40;99.90;;;;;;4396806;32;20119;-73
2021/08/28 06:05:22;;;;;;;2.75;0.73;;;14.40;99.90;;;;;;4399199;32;20078;-73
2021/08/28 06:07:47;;;;;;;0.50;0.50;;;14.30;99.90;;;;;;4388905;32;20542;-73
2021/08/28 06:10:13;;;;;;;1.80;0.40;;;14.30;99.90;;;;;;4383811;32;20106;-73
2021/08/28 06:12:39;;;;;;;1.48;0.70;;;14.20;99.90;;;;;;4384756;32;20432;-73
2021/08/28 06:15:05;;;;;;;0.50;0.50;;;14.20;99.90;;;;;;4397848;32;20070;-72
2021/08/28 06:17:32;;;;;;;0.50;0.50;;;14.20;99.90;;;;;;4399790;32;20059;-73
2021/08/28 06:19:57;;;;;;;4.45;0.52;;;14.30;99.90;;;;;;4398878;32;20082;-73
2021/08/28 06:22:23;;;;;;;0.95;0.37;;;14.30;99.90;;;;;;4393159;32;124664;-73
2021/08/28 06:24:48;;;;;;;2.53;0.55;;;14.20;99.90;;;;;;4384859;32;20125;-73
2021/08/28 06:27:14;;;;;;;4.12;0.62;;;14.20;99.90;;;;;;4384437;32;20055;-73
2021/08/28 06:29:39;;;;;;;0.90;0.73;;;14.20;99.90;;;;;;4395921;32;20394;-72
2021/08/28 06:32:05;;;;;;;0.32;0.32;;;14.20;99.90;;;;;;4390289;32;20059;-73
2021/08/28 06:34:31;;;;;;;0.50;0.50;;;14.20;99.90;;;;;;4391754;32;20059;-73
2021/08/28 06:36:56;;;;;;;0.35;0.35;;;14.30;99.90;;;;;;4390319;32;20103;-73
2021/08/28 06:39:22;;;;;;;1.25;0.60;;;14.20;99.90;;;;;;4396162;32;20086;-73
2021/08/28 06:41:48;;;;;;;0.37;0.37;;;14.20;99.90;;;;;;4388994;32;20082;-73
2021/08/28 06:44:16;;;;;;;0.30;0.30;;;14.20;99.90;;;;;;4385883;32;20086;-73
2021/08/28 06:46:41;;;;;;;0.37;0.37;;;14.20;99.90;;;;;;4396605;32;20065;-73
2021/08/28 06:49:07;;;;;;;0.40;0.40;;;14.10;99.90;;;;;;4397257;32;20436;-72
2021/08/28 06:51:32;;;;;;;0.30;0.30;;;14.10;99.90;;;;;;4386313;32;20117;-72
2021/08/28 06:53:57;;;;;;;0.28;0.28;;;14.20;99.90;;;;;;4384585;32;20460;-73
2021/08/28 06:56:23;;;;;;;1.62;0.45;;;14.30;99.90;;;;;;4388141;32;20071;-73
2021/08/28 06:58:48;;;;;;;0.30;0.30;;;14.40;99.90;;;;;;4383629;32;20066;-73
2021/08/28 07:01:14;;;;;;;0.40;0.40;;;14.40;99.90;;;;;;4386409;32;20122;-72
2021/08/28 07:03:40;;;;;;;0.30;0.30;;;14.30;99.90;;;;;;4398346;32;20490;-72
2021/08/28 07:06:05;;;;;;;1.20;0.57;;;14.20;99.90;;;;;;4389254;32;20074;-72
2021/08/28 07:08:31;;;;;;;1.15;0.73;;;14.20;99.90;;;;;;4397989;32;20065;-73
2021/08/28 07:10:56;;;;;;;0.43;0.43;;;14.40;99.90;;;;;;4399155;32;20086;-73
2021/08/28 07:13:22;;;;;;;6.05;0.60;;;14.40;99.90;;;;;;4395591;32;20521;-72
2021/08/28 07:15:48;;;;;;;0.43;0.43;;;14.30;99.90;;;;;;4383944;32;20083;-72
2021/08/28 07:18:14;;;;;;;1.35;0.30;;;14.30;99.90;;;;;;4383584;32;20114;-72
2021/08/28 07:20:41;;;;;;;2.35;0.50;;;14.30;99.90;;;;;;4382792;32;20067;-72
2021/08/28 07:23:07;;;;;;;3.97;1.10;;;14.40;99.90;;;;;;4391624;32;20562;-73
2021/08/28 07:25:37;;;;;;;1.27;0.80;;;14.40;99.90;;;;;;4397176;32;20174;-73
2021/08/28 07:28:04;;;;;;;0.90;0.60;;;14.20;99.90;;;;;;4389012;32;20082;-73
2021/08/28 07:30:30;;;;;;;0.70;0.70;;;14.30;99.90;;;;;;4391734;32;20086;-73
2021/08/28 07:32:56;;;;;;;1.75;0.90;;;14.40;99.90;;;;;;4390078;32;20091;-73
2021/08/28 07:35:21;;;;;;;1.95;0.65;;;14.40;99.90;;;;;;4393049;32;20066;-73
2021/08/28 07:37:47;;;;;;;0.60;0.60;;;14.30;99.90;;;;;;4392026;32;20085;-73
2021/08/28 07:40:13;;;;;;;0.40;0.40;;;14.40;99.90;;;;;;4393225;32;20091;-73
2021/08/28 07:42:38;;;;;;;0.47;0.47;;;14.50;99.90;;;;;;4386860;32;20067;-73
2021/08/28 07:45:04;;;;;;;0.57;0.50;;;14.40;99.90;;;;;;4381609;32;20503;-73
2021/08/28 07:47:30;;;;;;;0.47;0.40;;;14.40;99.90;;;;;;4383496;32;20131;-73
2021/08/28 07:49:55;;;;;;;0.37;0.37;;;14.50;99.90;;;;;;4390162;32;20066;-73
2021/08/28 07:52:21;;;;;;;0.50;0.37;;;14.60;99.90;;;;;;4397696;32;20408;-73
2021/08/28 07:54:46;;;;;;;1.02;0.82;;;14.60;99.90;;;;;;4398592;32;20070;-73
2021/08/28 07:57:12;;;;;;;0.60;0.60;;;14.60;99.90;;;;;;4397380;32;20069;-73
2021/08/28 07:59:38;;;;;;;1.67;0.50;;;14.50;99.90;;;;;;4400507;32;20078;-73
2021/08/28 08:02:03;;;;;;;0.47;0.47;;;14.50;99.90;;;;;;4393128;32;20135;-73
2021/08/28 08:04:29;;;;;;;1.42;0.80;;;14.40;99.90;;;;;;4385516;32;20121;-73
2021/08/28 08:06:54;;;;;;;0.50;0.50;;;14.50;99.90;;;;;;4390292;32;20069;-73
2021/08/28 08:09:20;;;;;;;0.30;0.30;;;14.50;99.90;;;;;;4399884;32;20070;-73
2021/08/28 08:11:45;;;;;;;0.37;0.37;;;14.50;99.90;;;;;;4400339;32;20054;-73
2021/08/28 08:14:11;;;;;;;0.93;0.77;;;14.60;99.90;;;;;;4391774;32;20071;-73
2021/08/28 08:16:36;;;;;;;0.40;0.40;;;14.70;99.90;;;;;;4384915;32;20489;-73
2021/08/28 08:19:02;;;;;;;0.45;0.40;;;14.70;99.90;;;;;;4385518;32;20078;-73
2021/08/28 08:21:27;;;;;;;0.82;0.50;;;14.80;99.90;;;;;;4385711;32;20058;-73
2021/08/28 08:23:53;;;;;;;1.50;0.40;;;14.90;99.90;;;;;;4398751;32;20523;-73
2021/08/28 08:26:18;;;;;;;0.40;0.40;;;14.90;99.90;;;;;;4401251;32;20062;-73
2021/08/28 08:28:45;;;;;;;0.40;0.40;;;14.90;99.90;;;;;;4389969;32;20087;-73
2021/08/28 08:31:10;;;;;;;0.40;0.40;;;15.00;99.90;;;;;;4392849;32;20066;-73
2021/08/28 08:33:36;;;;;;;3.92;0.50;;;15.00;99.90;;;;;;4391384;32;20090;-73
2021/08/28 08:36:02;;;;;;;0.30;0.30;;;15.00;99.90;;;;;;4392498;32;20502;-73
2021/08/28 08:38:27;;;;;;;0.60;0.60;;;15.10;99.90;;;;;;4392361;32;20170;-73
2021/08/28 08:40:54;;;;;;;0.30;0.30;;;15.20;99.90;;;;;;4394047;32;20129;-73
2021/08/28 08:43:20;;;;;;;0.30;0.30;;;15.20;99.90;;;;;;4388354;32;20074;-73
2021/08/28 08:45:45;;;;;;;0.28;0.28;;;15.20;99.90;;;;;;4393882;32;20519;-73
2021/08/28 08:48:13;;;;;;;2.62;0.50;;;15.30;99.90;;;;;;4398750;32;20075;-73
2021/08/28 08:50:39;;;;;;;1.42;0.40;;;15.30;99.90;;;;;;4390117;32;20520;-73
2021/08/28 08:53:07;;;;;;;0.40;0.40;;;15.40;99.90;;;;;;4387677;32;20074;-73
2021/08/28 08:55:33;;;;;;;0.45;0.45;;;15.50;99.90;;;;;;4391092;32;20121;-73
2021/08/28 08:57:59;;;;;;;0.50;0.50;;;15.60;99.90;;;;;;4385238;32;20099;-73
2021/08/28 09:00:25;;;;;;;0.45;0.45;;;15.70;99.90;;;;;;4384508;32;20071;-73
2021/08/28 09:02:51;;;;;;;0.32;0.32;;;15.70;99.90;;;;;;4396773;32;20137;-73
2021/08/28 09:05:17;;;;;;;0.30;0.30;;;15.70;99.90;;;;;;4401241;32;20561;-73
2021/08/28 09:07:42;;;;;;;0.30;0.30;;;15.80;99.90;;;;;;4390082;32;20082;-73
2021/08/28 09:10:08;;;;;;;0.35;0.35;;;15.80;99.90;;;;;;4385016;32;20062;-73
2021/08/28 09:12:37;;;;;;;0.40;0.40;;;15.80;99.90;;;;;;4385573;32;20122;-73
2021/08/28 09:15:05;;;;;;;1.00;0.77;;;15.70;99.90;;;;;;4398145;32;20058;-73
2021/08/28 09:17:31;;;;;;;0.45;0.45;;;15.70;99.90;;;;;;4400206;32;20087;-73
2021/08/28 09:19:56;;;;;;;0.28;0.28;;;15.70;99.90;;;;;;4399808;32;20121;-73
2021/08/28 09:22:28;;;;;;;10.75;0.60;;;15.80;99.90;;;;;;4396133;32;20483;-73
2021/08/28 09:25:00;;;;;;;0.50;0.50;;;15.80;99.90;;;;;;4384739;32;20070;-73
2021/08/28 09:27:43;;;;;;;1.08;0.37;;;15.80;99.90;;;;;;4386672;32;20457;-73
2021/08/28 09:30:36;;;;;;;0.40;0.40;;;15.90;99.90;;;;;;4392667;32;20062;-73
2021/08/28 09:33:05;;;;;;;0.35;0.35;;;15.90;99.90;;;;;;4383093;32;20472;-73
2021/08/28 09:35:33;;;;;;;0.30;0.30;;;15.90;99.90;;;;;;4389696;32;20058;-73
2021/08/28 09:38:03;;;;;;;0.40;0.40;;;16.00;99.90;;;;;;4392691;32;20070;-73
2021/08/28 09:40:31;;;;;;;0.30;0.30;;;16.00;99.90;;;;;;4390773;32;20058;-73
2021/08/28 09:43:07;;;;;;;0.35;0.35;;;16.00;99.90;;;;;;4388364;32;20078;-73
2021/08/28 09:45:35;;;;;;;0.40;0.40;;;16.00;99.90;;;;;;4392011;32;20078;-73
2021/08/28 09:48:01;;;;;;;0.40;0.40;;;16.00;99.90;;;;;;4398213;32;20129;-73
2021/08/28 09:50:31;;;;;;;0.30;0.30;;;16.10;99.90;;;;;;4390463;32;20075;-73
2021/08/28 09:53:00;;;;;;;1.25;0.40;;;16.20;99.90;;;;;;4386924;32;20134;-73
2021/08/28 09:55:30;;;;;;;1.67;0.68;;;16.40;99.90;;;;;;4388475;32;20082;-73
2021/08/28 09:57:56;;;;;;;0.40;0.40;;;16.50;99.90;;;;;;4384705;32;20066;-73
2021/08/28 10:00:21;;;;;;;1.20;0.60;;;16.70;99.90;;;;;;4384569;32;20417;-73
2021/08/28 10:03:07;;;;;;;0.40;0.40;;;16.80;99.90;;;;;;4395765;32;20094;-73
2021/08/28 10:05:35;;;;;;;0.30;0.30;;;16.80;99.90;;;;;;4387709;32;20177;-73
2021/08/28 10:08:05;;;;;;;0.40;0.40;;;16.80;99.90;;;;;;4387263;32;20067;-73
2021/08/28 10:10:33;;;;;;;0.50;0.50;;;16.80;99.90;;;;;;4383903;32;20113;-73
2021/08/28 10:12:59;;;;;;;0.30;0.30;;;16.70;99.90;;;;;;4384163;32;20062;-73
2021/08/28 10:15:25;;;;;;;2.65;0.50;;;16.70;99.90;;;;;;4398624;32;20065;-73
2021/08/28 10:17:52;;;;;;;0.50;0.50;;;16.60;99.90;;;;;;4399145;32;20094;-73
2021/08/28 10:20:19;;;;;;;0.40;0.40;;;16.60;99.90;;;;;;4398824;32;20062;-73
2021/08/28 10:22:47;;;;;;;0.30;0.30;;;16.60;99.90;;;;;;4393079;32;20083;-73
2021/08/28 10:25:14;;;;;;;0.20;0.20;;;16.50;99.90;;;;;;4384110;32;20067;-73
2021/08/28 10:27:40;;;;;;;0.35;0.35;;;16.60;99.90;;;;;;4387249;32;20431;-73
2021/08/28 10:30:09;;;;;;;0.40;0.40;;;16.70;99.90;;;;;;4392295;32;20520;-73
2021/08/28 10:32:35;;;;;;;0.40;0.40;;;16.70;99.90;;;;;;4390457;32;20394;-73
2021/08/28 10:35:01;;;;;;;0.40;0.40;;;16.90;99.90;;;;;;4386016;32;20070;-73
2021/08/28 10:37:26;;;;;;;0.40;0.40;;;17.10;99.90;;;;;;4393259;32;20515;-74
2021/08/28 10:39:52;;;;;;;0.30;0.30;;;17.30;99.90;;;;;;4390045;32;20070;-73
2021/08/28 10:42:20;;;;;;;0.60;0.60;;;17.30;99.90;;;;;;4395537;32;20086;-73
2021/08/28 10:44:49;;;;;;;0.40;0.40;;;17.20;99.90;;;;;;4393941;32;20067;-73
2021/08/28 10:47:21;;;;;;;0.30;0.30;;;17.30;99.90;;;;;;4374484;32;20106;-73
2021/08/28 10:49:50;;;;;;;0.30;0.30;;;17.30;99.90;;;;;;4388805;32;20078;-73
2021/08/28 10:52:21;;;;;;;0.30;0.30;;;17.30;99.90;;;;;;4397159;32;20128;-73
2021/08/28 10:54:56;;;;;;;0.30;0.30;;;17.30;99.90;;;;;;4396847;32;20376;-73
2021/08/28 10:57:26;;;;;;;0.22;0.22;;;17.50;99.90;;;;;;4397002;32;20499;-73
2021/08/28 11:00:10;;;;;;;0.52;0.52;;;17.50;99.90;;;;;;4398985;32;20087;-73
2021/08/28 11:02:54;;;;;;;0.57;0.55;;;17.60;99.90;;;;;;4388104;32;20512;-73
2021/08/28 11:05:22;;;;;;;0.30;0.30;;;17.80;99.90;;;;;;4384969;32;20086;-73
2021/08/28 11:07:48;;;;;;;0.37;0.37;;;17.90;99.90;;;;;;4393711;32;20065;-73
2021/08/28 11:10:18;;;;;;;3.42;0.90;;;18.00;99.90;;;;;;4398372;32;20066;-73
2021/08/28 11:13:04;;;;;;;0.60;0.60;;;18.10;99.90;;;;;;4400193;32;20070;-73
2021/08/28 11:15:33;;;;;;;0.30;0.30;;;18.10;99.90;;;;;;4367969;32;20092;-73
2021/08/28 11:18:01;;;;;;;0.40;0.40;;;18.00;99.90;;;;;;4368884;32;20508;-73
2021/08/28 11:20:38;;;;;;;0.30;0.30;;;18.00;99.90;;;;;;4368325;32;20083;-73
2021/08/28 11:23:06;;;;;;;0.32;0.32;;;18.00;99.90;;;;;;4385597;32;20062;-73
2021/08/28 11:25:33;;;;;;;0.30;0.30;;;18.00;99.90;;;;;;4401367;32;20066;-73
2021/08/28 11:27:59;;;;;;;0.40;0.40;;;18.10;99.90;;;;;;4395811;32;20075;-73
2021/08/28 11:30:46;;;;;;;0.28;0.28;;;18.70;99.90;;;;;;4392081;32;20078;-73
2021/08/28 11:33:21;;;;;;;0.20;0.20;;;19.10;99.90;;;;;;4381568;32;20467;-73
2021/08/28 11:35:50;;;;;;;0.30;0.30;;;19.20;99.90;;;;;;4394586;32;20073;-73
2021/08/28 11:38:23;;;;;;;0.30;0.30;;;19.10;99.90;;;;;;4395944;32;20432;-73
2021/08/28 11:41:00;;;;;;;0.40;0.40;;;19.00;99.90;;;;;;4391744;32;20081;-74
2021/08/28 11:43:36;;;;;;;0.20;0.20;;;19.30;99.90;;;;;;4397058;32;20117;-73
2021/08/28 11:46:04;;;;;;;0.25;0.25;;;19.70;99.90;;;;;;4388406;32;20108;-73
2021/08/28 11:48:30;;;;;;;0.20;0.20;;;20.10;99.90;;;;;;4387082;32;20126;-73
2021/08/28 11:50:56;;;;;;;0.20;0.20;;;20.70;99.90;;;;;;4399338;32;20456;-73
2021/08/28 11:53:29;;;;;;;0.20;0.20;;;21.30;99.90;;;;;;4398956;32;20070;-73
2021/08/28 11:56:05;;;;;;;0.20;0.20;;;21.60;99.90;;;;;;4396923;32;20066;-73
2021/08/28 11:58:31;;;;;;;0.30;0.30;;;21.90;99.90;;;;;;4401392;32;20125;-74
2021/08/28 12:00:57;;;;;;;0.00;0.00;;;22.30;99.90;;;;;;4400978;32;20062;-73
2021/08/28 12:03:22;;;;;;;0.20;0.20;;;22.70;99.90;;;;;;4385288;32;20066;-73
2021/08/28 12:05:52;;;;;;;0.20;0.10;;;22.70;99.90;;;;;;4385735;32;20066;-73
2021/08/28 12:08:18;;;;;;;0.25;0.25;;;23.00;99.90;;;;;;4398893;32;20069;-74
2021/08/28 12:10:44;;;;;;;0.10;0.10;;;23.00;99.90;;;;;;4400738;32;20117;-74
2021/08/28 12:13:10;;;;;;;0.20;0.20;;;23.00;99.90;;;;;;4398567;32;20413;-73
2021/08/28 12:15:36;;;;;;;0.00;0.00;;;23.40;99.90;;;;;;4384914;32;20070;-73
2021/08/28 12:18:01;;;;;;;0.10;0.10;;;23.30;99.90;;;;;;4385587;32;20074;-73
2021/08/28 12:20:31;;;;;;;0.10;0.10;;;23.20;99.90;;;;;;4385365;32;20130;-73
2021/08/28 12:22:59;;;;;;;0.10;0.10;;;23.00;99.90;;;;;;4392091;32;20118;-73
2021/08/28 12:25:26;;;;;;;0.03;0.03;;;22.50;99.90;;;;;;4389555;32;20075;-73
2021/08/28 12:27:53;;;;;;;0.20;0.20;;;21.90;99.90;;;;;;4390618;32;20074;-73
2021/08/28 12:30:20;;;;;;;0.17;0.17;;;21.70;99.90;;;;;;4393579;32;20118;-73
2021/08/28 12:32:45;;;;;;;0.10;0.10;;;21.50;99.90;;;;;;4391657;32;20059;-73
2021/08/28 12:35:11;;;;;;;0.20;0.20;;;21.50;99.90;;;;;;4394447;32;20507;-73
2021/08/28 12:37:37;;;;;;;0.15;0.15;;;21.80;99.90;;;;;;4393461;32;20085;-73
2021/08/28 12:40:09;;;;;;;0.05;0.05;;;22.30;99.90;;;;;;4396450;32;20494;-73
2021/08/28 12:42:35;;;;;;;0.20;0.20;;;22.40;99.90;;;;;;4389433;32;20078;-73
2021/08/28 12:45:04;;;;;;;0.35;0.35;;;22.60;99.90;;;;;;4389896;32;20082;-73
2021/08/28 12:47:32;;;;;;;1.37;0.20;;;22.90;99.90;;;;;;4399128;32;20065;-73